sensor_id;sensor_type;location;lat;lon;timestamp;temperature;humidity
6291;DHT22;3178;48.730;8.990;2022-12-26T00:01:23;9.20;99.90
6291;DHT22;3178;48.730;8.990;2022-12-26T00:03:49;9.10;99.90
6291;DHT22;3178;48.730;8.990;2022-12-26T00:06:18;9.10;99.90
6291;DHT22;3178;48.730;8.990;2022-12-26T00:08:44;9.10;99.90
6291;DHT22;3178;48.730;8.990;2022-12-26T00:11:11;9.10;99.90
6291;DHT22;3178;48.730;8.990;2022-12-26T00:13:38;9.10;99.90
6291;DHT22;3178;48.730;8.990;2022-12-26T00:18:32;9.00;99.90
6291;DHT22;3178;48.730;8.990;2022-12-26T00:20:58;9.00;99.90
6291;DHT22;3178;48.730;8.990;2022-12-26T00:23:23;9.00;99.90
6291;DHT22;3178;48.730;8.990;2022-12-26T00:25:49;9.00;99.90
6291;DHT22;3178;48.730;8.990;2022-12-26T00:28:14;8.90;99.90
6291;DHT22;3178;48.730;8.990;2022-12-26T00:30:40;8.90;99.90
6291;DHT22;3178;48.730;8.990;2022-12-26T00:33:05;8.90;99.90
6291;DHT22;3178;48.730;8.990;2022-12-26T00:35:31;8.90;99.90
6291;DHT22;3178;48.730;8.990;2022-12-26T00:37:56;8.90;99.90
6291;DHT22;3178;48.730;8.990;2022-12-26T00:40:22;8.90;99.90
6291;DHT22;3178;48.730;8.990;2022-12-26T00:42:48;8.80;99.90
6291;DHT22;3178;48.730;8.990;2022-12-26T00:45:13;8.80;99.90
6291;DHT22;3178;48.730;8.990;2022-12-26T00:47:39;8.80;99.90
6291;DHT22;3178;48.730;8.990;2022-12-26T00:50:05;8.70;99.90
6291;DHT22;3178;48.730;8.990;2022-12-26T00:52:30;8.70;99.90
6291;DHT22;3178;48.730;8.990;2022-12-26T00:54:56;8.70;99.90
6291;DHT22;3178;48.730;8.990;2022-12-26T00:57:22;8.70;99.90
6291;DHT22;3178;48.730;8.990;2022-12-26T00:59:47;8.60;99.90
6291;DHT22;3178;48.730;8.990;2022-12-26T01:02:13;8.60;99.90
6291;DHT22;3178;48.730;8.990;2022-12-26T01:04:57;8.60;99.90
6291;DHT22;3178;48.730;8.990;2022-12-26T01:07:22;8.50;99.90
6291;DHT22;3178;48.730;8.990;2022-12-26T01:09:48;8.50;99.90
6291;DHT22;3178;48.730;8.990;2022-12-26T01:12:14;8.50;99.90
6291;DHT22;3178;48.730;8.990;2022-12-26T01:14:39;8.50;99.90
6291;DHT22;3178;48.730;8.990;2022-12-26T01:17:05;8.50;99.90
6291;DHT22;3178;48.730;8.990;2022-12-26T01:19:30;8.50;99.90
6291;DHT22;3178;48.730;8.990;2022-12-26T01:21:56;8.50;99.90
6291;DHT22;3178;48.730;8.990;2022-12-26T01:24:21;8.50;99.90
6291;DHT22;3178;48.730;8.990;2022-12-26T01:26:47;8.50;99.90
6291;DHT22;3178;48.730;8.990;2022-12-26T01:29:12;8.50;99.90
6291;DHT22;3178;48.730;8.990;2022-12-26T01:31:38;8.50;99.90
6291;DHT22;3178;48.730;8.990;2022-12-26T01:34:03;8.50;99.90
6291;DHT22;3178;48.730;8.990;2022-12-26T01:36:29;8.50;99.90
6291;DHT22;3178;48.730;8.990;2022-12-26T01:38:54;8.50;99.90
6291;DHT22;3178;48.730;8.990;2022-12-26T01:41:20;8.50;99.90
6291;DHT22;3178;48.730;8.990;2022-12-26T01:44:00;8.50;99.90
6291;DHT22;3178;48.730;8.990;2022-12-26T01:46:41;8.50;99.90
6291;DHT22;3178;48.730;8.990;2022-12-26T01:51:40;8.50;99.90
6291;DHT22;3178;48.730;8.990;2022-12-26T01:54:09;8.50;99.90
6291;DHT22;3178;48.730;8.990;2022-12-26T01:56:38;8.40;99.90
6291;DHT22;3178;48.730;8.990;2022-12-26T01:59:12;8.50;99.90
6291;DHT22;3178;48.730;8.990;2022-12-26T02:01:40;8.40;99.90
6291;DHT22;3178;48.730;8.990;2022-12-26T02:04:10;8.40;99.90
6291;DHT22;3178;48.730;8.990;2022-12-26T02:06:55;8.40;99.90
6291;DHT22;3178;48.730;8.990;2022-12-26T02:09:21;8.30;99.90
6291;DHT22;3178;48.730;8.990;2022-12-26T02:11:52;8.30;99.90
6291;DHT22;3178;48.730;8.990;2022-12-26T02:14:19;8.30;99.90
6291;DHT22;3178;48.730;8.990;2022-12-26T02:16:44;8.30;99.90
6291;DHT22;3178;48.730;8.990;2022-12-26T02:19:34;8.30;99.90
6291;DHT22;3178;48.730;8.990;2022-12-26T02:28:03;8.40;99.90
6291;DHT22;3178;48.730;8.990;2022-12-26T02:30:54;8.40;99.90
6291;DHT22;3178;48.730;8.990;2022-12-26T02:33:40;8.40;99.90
6291;DHT22;3178;48.730;8.990;2022-12-26T02:44:18;8.60;99.90
6291;DHT22;3178;48.730;8.990;2022-12-26T02:47:14;8.60;99.90
6291;DHT22;3178;48.730;8.990;2022-12-26T02:49:50;8.60;99.90
6291;DHT22;3178;48.730;8.990;2022-12-26T02:55:33;8.60;99.90
6291;DHT22;3178;48.730;8.990;2022-12-26T02:58:22;8.60;99.90
6291;DHT22;3178;48.730;8.990;2022-12-26T03:01:52;8.60;99.90
6291;DHT22;3178;48.730;8.990;2022-12-26T03:04:31;8.60;99.90
6291;DHT22;3178;48.730;8.990;2022-12-26T03:07:25;8.50;99.90
6291;DHT22;3178;48.730;8.990;2022-12-26T03:10:24;8.60;99.90
6291;DHT22;3178;48.730;8.990;2022-12-26T03:13:25;8.50;99.90
6291;DHT22;3178;48.730;8.990;2022-12-26T03:16:00;8.50;99.90
6291;DHT22;3178;48.730;8.990;2022-12-26T03:18:49;8.50;99.90
6291;DHT22;3178;48.730;8.990;2022-12-26T03:21:19;8.50;99.90
6291;DHT22;3178;48.730;8.990;2022-12-26T03:23:47;8.50;99.90
6291;DHT22;3178;48.730;8.990;2022-12-26T03:26:26;8.50;99.90
6291;DHT22;3178;48.730;8.990;2022-12-26T03:29:17;8.50;99.90
6291;DHT22;3178;48.730;8.990;2022-12-26T03:32:08;8.50;99.90
6291;DHT22;3178;48.730;8.990;2022-12-26T03:34:41;8.50;99.90
6291;DHT22;3178;48.730;8.990;2022-12-26T03:43:19;8.50;99.90
6291;DHT22;3178;48.730;8.990;2022-12-26T03:46:31;8.50;99.90
6291;DHT22;3178;48.730;8.990;2022-12-26T03:49:23;8.50;99.90
6291;DHT22;3178;48.730;8.990;2022-12-26T03:52:37;8.50;99.90
6291;DHT22;3178;48.730;8.990;2022-12-26T03:55:44;8.40;99.90
6291;DHT22;3178;48.730;8.990;2022-12-26T03:58:46;8.40;99.90
6291;DHT22;3178;48.730;8.990;2022-12-26T04:01:34;8.40;99.90
6291;DHT22;3178;48.730;8.990;2022-12-26T04:04:21;8.40;99.90
6291;DHT22;3178;48.730;8.990;2022-12-26T04:07:11;8.40;99.90
6291;DHT22;3178;48.730;8.990;2022-12-26T04:10:02;8.40;99.90
6291;DHT22;3178;48.730;8.990;2022-12-26T04:13:25;8.50;99.90
6291;DHT22;3178;48.730;8.990;2022-12-26T04:16:20;8.50;99.90
6291;DHT22;3178;48.730;8.990;2022-12-26T04:22:42;8.60;99.90
6291;DHT22;3178;48.730;8.990;2022-12-26T04:25:43;8.60;99.90
6291;DHT22;3178;48.730;8.990;2022-12-26T04:28:28;8.70;99.90
6291;DHT22;3178;48.730;8.990;2022-12-26T04:31:22;8.70;99.90
6291;DHT22;3178;48.730;8.990;2022-12-26T04:34:38;8.70;99.90
6291;DHT22;3178;48.730;8.990;2022-12-26T04:37:20;8.80;99.90
6291;DHT22;3178;48.730;8.990;2022-12-26T04:40:09;8.80;99.90
6291;DHT22;3178;48.730;8.990;2022-12-26T04:42:54;8.80;99.90
6291;DHT22;3178;48.730;8.990;2022-12-26T04:45:39;8.80;99.90
6291;DHT22;3178;48.730;8.990;2022-12-26T04:48:05;8.90;99.90
6291;DHT22;3178;48.730;8.990;2022-12-26T04:50:50;8.90;99.90
6291;DHT22;3178;48.730;8.990;2022-12-26T04:53:17;8.90;99.90
6291;DHT22;3178;48.730;8.990;2022-12-26T04:55:42;8.90;99.90
6291;DHT22;3178;48.730;8.990;2022-12-26T04:58:08;8.90;99.90
6291;DHT22;3178;48.730;8.990;2022-12-26T05:00:34;8.90;99.90
6291;DHT22;3178;48.730;8.990;2022-12-26T05:02:59;8.90;99.90
6291;DHT22;3178;48.730;8.990;2022-12-26T05:05:47;8.90;99.90
6291;DHT22;3178;48.730;8.990;2022-12-26T05:08:37;8.80;99.90
6291;DHT22;3178;48.730;8.990;2022-12-26T05:11:22;8.80;99.90
6291;DHT22;3178;48.730;8.990;2022-12-26T05:13:48;8.80;99.90
6291;DHT22;3178;48.730;8.990;2022-12-26T05:16:13;8.80;99.90
6291;DHT22;3178;48.730;8.990;2022-12-26T05:18:58;8.80;99.90
6291;DHT22;3178;48.730;8.990;2022-12-26T05:21:42;8.80;99.90
6291;DHT22;3178;48.730;8.990;2022-12-26T05:24:36;8.80;99.90
6291;DHT22;3178;48.730;8.990;2022-12-26T05:27:20;8.70;99.90
6291;DHT22;3178;48.730;8.990;2022-12-26T05:30:06;8.70;99.90
6291;DHT22;3178;48.730;8.990;2022-12-26T05:32:32;8.60;99.90
6291;DHT22;3178;48.730;8.990;2022-12-26T05:35:16;8.50;99.90
6291;DHT22;3178;48.730;8.990;2022-12-26T05:37:41;8.50;99.90
6291;DHT22;3178;48.730;8.990;2022-12-26T05:40:07;8.50;99.90
6291;DHT22;3178;48.730;8.990;2022-12-26T05:42:33;8.50;99.90
6291;DHT22;3178;48.730;8.990;2022-12-26T05:44:59;8.50;99.90
6291;DHT22;3178;48.730;8.990;2022-12-26T05:47:24;8.50;99.90
6291;DHT22;3178;48.730;8.990;2022-12-26T05:49:50;8.60;99.90
6291;DHT22;3178;48.730;8.990;2022-12-26T05:52:16;8.60;99.90
6291;DHT22;3178;48.730;8.990;2022-12-26T05:54:41;8.60;99.90
6291;DHT22;3178;48.730;8.990;2022-12-26T05:57:07;8.70;99.90
6291;DHT22;3178;48.730;8.990;2022-12-26T05:59:32;8.80;99.90
6291;DHT22;3178;48.730;8.990;2022-12-26T06:01:58;8.80;99.90
6291;DHT22;3178;48.730;8.990;2022-12-26T06:04:23;8.80;99.90
6291;DHT22;3178;48.730;8.990;2022-12-26T06:06:49;8.80;99.90
6291;DHT22;3178;48.730;8.990;2022-12-26T06:09:14;8.90;99.90
6291;DHT22;3178;48.730;8.990;2022-12-26T06:11:40;8.90;99.90
6291;DHT22;3178;48.730;8.990;2022-12-26T06:14:05;8.90;99.90
6291;DHT22;3178;48.730;8.990;2022-12-26T06:16:31;8.90;99.90
6291;DHT22;3178;48.730;8.990;2022-12-26T06:18:56;8.90;99.90
6291;DHT22;3178;48.730;8.990;2022-12-26T06:21:22;8.90;99.90
6291;DHT22;3178;48.730;8.990;2022-12-26T06:23:48;8.90;99.90
6291;DHT22;3178;48.730;8.990;2022-12-26T06:26:14;9.00;99.90
6291;DHT22;3178;48.730;8.990;2022-12-26T06:28:41;9.00;99.90
6291;DHT22;3178;48.730;8.990;2022-12-26T06:31:13;9.00;99.90
6291;DHT22;3178;48.730;8.990;2022-12-26T06:33:42;9.00;99.90
6291;DHT22;3178;48.730;8.990;2022-12-26T06:36:10;9.00;99.90
6291;DHT22;3178;48.730;8.990;2022-12-26T06:38:36;9.00;99.90
6291;DHT22;3178;48.730;8.990;2022-12-26T06:41:07;9.10;99.90
6291;DHT22;3178;48.730;8.990;2022-12-26T06:43:33;9.10;99.90
6291;DHT22;3178;48.730;8.990;2022-12-26T06:46:01;9.10;99.90
6291;DHT22;3178;48.730;8.990;2022-12-26T06:48:27;9.10;99.90
6291;DHT22;3178;48.730;8.990;2022-12-26T06:50:52;9.10;99.90
6291;DHT22;3178;48.730;8.990;2022-12-26T06:53:19;9.10;99.90
6291;DHT22;3178;48.730;8.990;2022-12-26T06:55:46;9.20;99.90
6291;DHT22;3178;48.730;8.990;2022-12-26T06:58:11;9.10;99.90
6291;DHT22;3178;48.730;8.990;2022-12-26T07:00:37;9.20;99.90
6291;DHT22;3178;48.730;8.990;2022-12-26T07:03:03;9.20;99.90
6291;DHT22;3178;48.730;8.990;2022-12-26T07:05:28;9.20;99.90
6291;DHT22;3178;48.730;8.990;2022-12-26T07:07:54;9.20;99.90
6291;DHT22;3178;48.730;8.990;2022-12-26T07:10:20;9.20;99.90
6291;DHT22;3178;48.730;8.990;2022-12-26T07:12:46;9.30;99.90
6291;DHT22;3178;48.730;8.990;2022-12-26T07:15:12;9.30;99.90
6291;DHT22;3178;48.730;8.990;2022-12-26T07:17:38;9.40;99.90
6291;DHT22;3178;48.730;8.990;2022-12-26T07:20:04;9.40;99.90
6291;DHT22;3178;48.730;8.990;2022-12-26T07:22:30;9.50;99.90
6291;DHT22;3178;48.730;8.990;2022-12-26T07:24:56;9.50;99.90
6291;DHT22;3178;48.730;8.990;2022-12-26T07:27:21;9.50;99.90
6291;DHT22;3178;48.730;8.990;2022-12-26T07:29:47;9.50;99.90
6291;DHT22;3178;48.730;8.990;2022-12-26T07:32:13;9.50;99.90
6291;DHT22;3178;48.730;8.990;2022-12-26T07:34:38;9.50;99.90
6291;DHT22;3178;48.730;8.990;2022-12-26T07:37:05;9.60;99.90
6291;DHT22;3178;48.730;8.990;2022-12-26T07:39:30;9.60;99.90
6291;DHT22;3178;48.730;8.990;2022-12-26T07:41:56;9.60;99.90
6291;DHT22;3178;48.730;8.990;2022-12-26T07:44:22;9.60;99.90
6291;DHT22;3178;48.730;8.990;2022-12-26T07:46:47;9.60;99.90
6291;DHT22;3178;48.730;8.990;2022-12-26T07:49:13;9.50;99.90
6291;DHT22;3178;48.730;8.990;2022-12-26T07:51:40;9.60;99.90
6291;DHT22;3178;48.730;8.990;2022-12-26T07:54:06;9.60;99.90
6291;DHT22;3178;48.730;8.990;2022-12-26T07:56:31;9.60;99.90
6291;DHT22;3178;48.730;8.990;2022-12-26T07:58:57;9.60;99.90
6291;DHT22;3178;48.730;8.990;2022-12-26T08:01:23;9.60;99.90
6291;DHT22;3178;48.730;8.990;2022-12-26T08:03:49;9.60;99.90
6291;DHT22;3178;48.730;8.990;2022-12-26T08:06:16;9.50;99.90
6291;DHT22;3178;48.730;8.990;2022-12-26T08:08:42;9.50;99.90
6291;DHT22;3178;48.730;8.990;2022-12-26T08:11:09;9.50;99.90
6291;DHT22;3178;48.730;8.990;2022-12-26T08:13:35;9.50;99.90
6291;DHT22;3178;48.730;8.990;2022-12-26T08:16:06;9.50;99.90
6291;DHT22;3178;48.730;8.990;2022-12-26T08:18:32;9.40;99.90
6291;DHT22;3178;48.730;8.990;2022-12-26T08:20:57;9.40;99.90
6291;DHT22;3178;48.730;8.990;2022-12-26T08:23:23;9.40;99.90
6291;DHT22;3178;48.730;8.990;2022-12-26T08:25:49;9.50;99.90
6291;DHT22;3178;48.730;8.990;2022-12-26T08:28:15;9.50;99.90
6291;DHT22;3178;48.730;8.990;2022-12-26T08:30:41;9.50;99.90
6291;DHT22;3178;48.730;8.990;2022-12-26T08:33:07;9.60;99.90
6291;DHT22;3178;48.730;8.990;2022-12-26T08:35:34;9.60;99.90
6291;DHT22;3178;48.730;8.990;2022-12-26T08:37:59;9.60;99.90
6291;DHT22;3178;48.730;8.990;2022-12-26T08:40:26;9.60;99.90
6291;DHT22;3178;48.730;8.990;2022-12-26T08:42:51;9.60;99.90
6291;DHT22;3178;48.730;8.990;2022-12-26T08:45:17;9.60;99.90
6291;DHT22;3178;48.730;8.990;2022-12-26T08:47:42;9.60;99.90
6291;DHT22;3178;48.730;8.990;2022-12-26T08:50:08;9.60;99.90
6291;DHT22;3178;48.730;8.990;2022-12-26T08:52:34;9.60;99.90
6291;DHT22;3178;48.730;8.990;2022-12-26T08:55:03;9.60;99.90
6291;DHT22;3178;48.730;8.990;2022-12-26T08:57:28;9.60;99.90
6291;DHT22;3178;48.730;8.990;2022-12-26T08:59:54;9.60;99.90
6291;DHT22;3178;48.730;8.990;2022-12-26T09:02:19;9.50;99.90
6291;DHT22;3178;48.730;8.990;2022-12-26T09:04:45;9.50;99.90
6291;DHT22;3178;48.730;8.990;2022-12-26T09:07:11;9.50;99.90
6291;DHT22;3178;48.730;8.990;2022-12-26T09:09:36;9.50;99.90
6291;DHT22;3178;48.730;8.990;2022-12-26T09:12:02;9.40;99.90
6291;DHT22;3178;48.730;8.990;2022-12-26T09:14:28;9.40;99.90
6291;DHT22;3178;48.730;8.990;2022-12-26T09:16:53;9.30;99.90
6291;DHT22;3178;48.730;8.990;2022-12-26T09:19:20;9.20;99.90
6291;DHT22;3178;48.730;8.990;2022-12-26T09:21:47;9.20;99.90
6291;DHT22;3178;48.730;8.990;2022-12-26T09:24:15;9.20;99.90
6291;DHT22;3178;48.730;8.990;2022-12-26T09:26:42;9.20;99.90
6291;DHT22;3178;48.730;8.990;2022-12-26T09:29:12;9.10;99.90
6291;DHT22;3178;48.730;8.990;2022-12-26T09:31:38;9.00;99.90
6291;DHT22;3178;48.730;8.990;2022-12-26T09:34:05;9.00;99.90
6291;DHT22;3178;48.730;8.990;2022-12-26T09:36:34;9.10;99.90
6291;DHT22;3178;48.730;8.990;2022-12-26T09:39:02;9.10;99.90
6291;DHT22;3178;48.730;8.990;2022-12-26T09:44:15;9.20;99.90
6291;DHT22;3178;48.730;8.990;2022-12-26T09:49:53;9.10;99.90
6291;DHT22;3178;48.730;8.990;2022-12-26T09:55:00;9.00;99.90
6291;DHT22;3178;48.730;8.990;2022-12-26T09:57:35;9.00;99.90
6291;DHT22;3178;48.730;8.990;2022-12-26T10:00:04;9.10;99.90
6291;DHT22;3178;48.730;8.990;2022-12-26T10:02:30;9.10;99.90
6291;DHT22;3178;48.730;8.990;2022-12-26T10:04:56;9.20;99.90
6291;DHT22;3178;48.730;8.990;2022-12-26T10:07:38;9.20;99.90
6291;DHT22;3178;48.730;8.990;2022-12-26T10:10:22;9.20;99.90
6291;DHT22;3178;48.730;8.990;2022-12-26T10:12:59;9.20;99.90
6291;DHT22;3178;48.730;8.990;2022-12-26T10:18:25;9.20;99.90
6291;DHT22;3178;48.730;8.990;2022-12-26T10:23:38;9.20;99.90
6291;DHT22;3178;48.730;8.990;2022-12-26T10:26:13;9.20;99.90
6291;DHT22;3178;48.730;8.990;2022-12-26T10:28:54;9.20;99.90
6291;DHT22;3178;48.730;8.990;2022-12-26T10:34:00;9.30;99.90
6291;DHT22;3178;48.730;8.990;2022-12-26T10:36:38;9.30;99.90
6291;DHT22;3178;48.730;8.990;2022-12-26T10:39:13;9.30;99.90
6291;DHT22;3178;48.730;8.990;2022-12-26T10:41:45;9.30;99.90
6291;DHT22;3178;48.730;8.990;2022-12-26T10:44:12;9.30;99.90
6291;DHT22;3178;48.730;8.990;2022-12-26T10:46:50;9.40;99.90
6291;DHT22;3178;48.730;8.990;2022-12-26T10:49:21;9.40;99.90
6291;DHT22;3178;48.730;8.990;2022-12-26T10:51:49;9.40;99.90
6291;DHT22;3178;48.730;8.990;2022-12-26T10:54:17;9.40;99.90
6291;DHT22;3178;48.730;8.990;2022-12-26T10:56:44;9.40;99.90
6291;DHT22;3178;48.730;8.990;2022-12-26T10:59:48;9.40;99.90
6291;DHT22;3178;48.730;8.990;2022-12-26T11:02:24;9.40;99.90
6291;DHT22;3178;48.730;8.990;2022-12-26T11:07:30;9.50;99.90
6291;DHT22;3178;48.730;8.990;2022-12-26T11:09:57;9.50;99.90
6291;DHT22;3178;48.730;8.990;2022-12-26T11:12:39;9.40;99.90
6291;DHT22;3178;48.730;8.990;2022-12-26T11:15:38;9.40;99.90
6291;DHT22;3178;48.730;8.990;2022-12-26T11:18:22;9.50;99.90
6291;DHT22;3178;48.730;8.990;2022-12-26T11:20:49;9.50;99.90
6291;DHT22;3178;48.730;8.990;2022-12-26T11:25:59;9.60;99.90
6291;DHT22;3178;48.730;8.990;2022-12-26T11:28:28;9.60;99.90
6291;DHT22;3178;48.730;8.990;2022-12-26T11:30:54;9.60;99.90
6291;DHT22;3178;48.730;8.990;2022-12-26T11:33:35;9.60;99.90
6291;DHT22;3178;48.730;8.990;2022-12-26T11:36:09;9.50;99.90
6291;DHT22;3178;48.730;8.990;2022-12-26T11:38:47;9.50;99.90
6291;DHT22;3178;48.730;8.990;2022-12-26T11:41:30;9.50;99.90
6291;DHT22;3178;48.730;8.990;2022-12-26T11:46:48;9.50;99.90
6291;DHT22;3178;48.730;8.990;2022-12-26T11:49:33;9.50;99.90
6291;DHT22;3178;48.730;8.990;2022-12-26T11:52:02;9.40;99.90
6291;DHT22;3178;48.730;8.990;2022-12-26T11:54:49;9.40;99.90
6291;DHT22;3178;48.730;8.990;2022-12-26T11:57:31;9.40;99.90
6291;DHT22;3178;48.730;8.990;2022-12-26T12:00:18;9.50;99.90
6291;DHT22;3178;48.730;8.990;2022-12-26T12:02:44;9.50;99.90
6291;DHT22;3178;48.730;8.990;2022-12-26T12:11:24;9.50;99.90
6291;DHT22;3178;48.730;8.990;2022-12-26T12:16:43;9.70;99.90
6291;DHT22;3178;48.730;8.990;2022-12-26T12:19:41;9.60;99.90
6291;DHT22;3178;48.730;8.990;2022-12-26T12:27:30;9.50;99.90
6291;DHT22;3178;48.730;8.990;2022-12-26T12:35:51;9.50;99.90
6291;DHT22;3178;48.730;8.990;2022-12-26T12:38:25;9.60;99.90
6291;DHT22;3178;48.730;8.990;2022-12-26T12:43:43;9.70;99.90
6291;DHT22;3178;48.730;8.990;2022-12-26T12:46:27;9.60;99.90
6291;DHT22;3178;48.730;8.990;2022-12-26T12:51:49;9.70;99.90
6291;DHT22;3178;48.730;8.990;2022-12-26T12:54:39;9.60;99.90
6291;DHT22;3178;48.730;8.990;2022-12-26T12:57:31;9.70;99.90
6291;DHT22;3178;48.730;8.990;2022-12-26T13:00:23;9.70;99.90
6291;DHT22;3178;48.730;8.990;2022-12-26T13:03:31;9.70;99.90
6291;DHT22;3178;48.730;8.990;2022-12-26T13:06:05;9.60;99.90
6291;DHT22;3178;48.730;8.990;2022-12-26T13:08:45;9.60;99.90
6291;DHT22;3178;48.730;8.990;2022-12-26T13:11:33;9.60;99.90
6291;DHT22;3178;48.730;8.990;2022-12-26T13:14:18;9.60;99.90
6291;DHT22;3178;48.730;8.990;2022-12-26T13:16:55;9.60;99.90
6291;DHT22;3178;48.730;8.990;2022-12-26T13:19:27;9.60;99.90
6291;DHT22;3178;48.730;8.990;2022-12-26T13:22:00;9.60;99.90
6291;DHT22;3178;48.730;8.990;2022-12-26T13:32:03;9.50;99.90
6291;DHT22;3178;48.730;8.990;2022-12-26T13:34:29;9.60;99.90
6291;DHT22;3178;48.730;8.990;2022-12-26T13:36:57;9.60;99.90
6291;DHT22;3178;48.730;8.990;2022-12-26T13:44:51;9.70;99.90
6291;DHT22;3178;48.730;8.990;2022-12-26T13:47:37;9.70;99.90
6291;DHT22;3178;48.730;8.990;2022-12-26T13:55:51;9.60;99.90
6291;DHT22;3178;48.730;8.990;2022-12-26T14:10:17;9.50;99.90
6291;DHT22;3178;48.730;8.990;2022-12-26T14:21:34;9.40;99.90
6291;DHT22;3178;48.730;8.990;2022-12-26T14:24:20;9.40;99.90
6291;DHT22;3178;48.730;8.990;2022-12-26T14:27:25;9.40;99.90
6291;DHT22;3178;48.730;8.990;2022-12-26T14:40:36;9.40;99.90
6291;DHT22;3178;48.730;8.990;2022-12-26T14:43:12;9.30;99.90
6291;DHT22;3178;48.730;8.990;2022-12-26T14:45:50;9.40;99.90
6291;DHT22;3178;48.730;8.990;2022-12-26T15:04:04;9.40;99.90
6291;DHT22;3178;48.730;8.990;2022-12-26T15:07:01;9.40;99.90
6291;DHT22;3178;48.730;8.990;2022-12-26T15:12:46;9.40;99.90
6291;DHT22;3178;48.730;8.990;2022-12-26T15:15:37;9.40;99.90
6291;DHT22;3178;48.730;8.990;2022-12-26T15:26:57;9.20;99.90
6291;DHT22;3178;48.730;8.990;2022-12-26T15:29:38;9.20;99.90
6291;DHT22;3178;48.730;8.990;2022-12-26T15:32:26;9.20;99.90
6291;DHT22;3178;48.730;8.990;2022-12-26T15:35:13;9.20;99.90
6291;DHT22;3178;48.730;8.990;2022-12-26T15:37:59;9.10;99.90
6291;DHT22;3178;48.730;8.990;2022-12-26T15:40:33;9.10;99.90
6291;DHT22;3178;48.730;8.990;2022-12-26T15:46:00;9.20;99.90
6291;DHT22;3178;48.730;8.990;2022-12-26T15:51:17;9.20;99.90
6291;DHT22;3178;48.730;8.990;2022-12-26T16:07:52;9.10;99.90
6291;DHT22;3178;48.730;8.990;2022-12-26T16:10:27;9.10;99.90
6291;DHT22;3178;48.730;8.990;2022-12-26T16:16:04;9.00;99.90
6291;DHT22;3178;48.730;8.990;2022-12-26T16:18:31;9.00;99.90
6291;DHT22;3178;48.730;8.990;2022-12-26T16:21:00;9.00;99.90
6291;DHT22;3178;48.730;8.990;2022-12-26T16:23:46;8.90;99.90
6291;DHT22;3178;48.730;8.990;2022-12-26T16:26:38;8.90;99.90
6291;DHT22;3178;48.730;8.990;2022-12-26T16:29:04;8.90;99.90
6291;DHT22;3178;48.730;8.990;2022-12-26T16:31:30;8.90;99.90
6291;DHT22;3178;48.730;8.990;2022-12-26T16:33:58;8.90;99.90
6291;DHT22;3178;48.730;8.990;2022-12-26T16:36:27;8.90;99.90
6291;DHT22;3178;48.730;8.990;2022-12-26T16:38:53;8.90;99.90
6291;DHT22;3178;48.730;8.990;2022-12-26T16:43:46;8.90;99.90
6291;DHT22;3178;48.730;8.990;2022-12-26T16:46:12;8.80;99.90
6291;DHT22;3178;48.730;8.990;2022-12-26T16:48:39;8.80;99.90
6291;DHT22;3178;48.730;8.990;2022-12-26T16:53:51;8.70;99.90
6291;DHT22;3178;48.730;8.990;2022-12-26T16:56:27;8.80;99.90
6291;DHT22;3178;48.730;8.990;2022-12-26T16:59:18;8.80;99.90
6291;DHT22;3178;48.730;8.990;2022-12-26T17:01:55;8.80;99.90
6291;DHT22;3178;48.730;8.990;2022-12-26T17:04:26;8.80;99.90
6291;DHT22;3178;48.730;8.990;2022-12-26T17:06:53;8.80;99.90
6291;DHT22;3178;48.730;8.990;2022-12-26T17:09:22;8.80;99.90
6291;DHT22;3178;48.730;8.990;2022-12-26T17:14:26;8.80;99.90
6291;DHT22;3178;48.730;8.990;2022-12-26T17:17:01;8.80;99.90
6291;DHT22;3178;48.730;8.990;2022-12-26T17:19:29;8.80;99.90
6291;DHT22;3178;48.730;8.990;2022-12-26T17:24:40;8.80;99.90
6291;DHT22;3178;48.730;8.990;2022-12-26T17:27:23;8.90;99.90
6291;DHT22;3178;48.730;8.990;2022-12-26T17:30:00;8.90;99.90
6291;DHT22;3178;48.730;8.990;2022-12-26T17:32:42;8.90;99.90
6291;DHT22;3178;48.730;8.990;2022-12-26T17:35:16;8.90;99.90
6291;DHT22;3178;48.730;8.990;2022-12-26T17:37:43;8.90;99.90
6291;DHT22;3178;48.730;8.990;2022-12-26T17:42:53;9.00;99.90
6291;DHT22;3178;48.730;8.990;2022-12-26T17:45:22;9.00;99.90
6291;DHT22;3178;48.730;8.990;2022-12-26T17:47:52;9.00;99.90
6291;DHT22;3178;48.730;8.990;2022-12-26T17:50:19;9.00;99.90
6291;DHT22;3178;48.730;8.990;2022-12-26T17:52:46;8.90;99.90
6291;DHT22;3178;48.730;8.990;2022-12-26T17:55:17;8.90;99.90
6291;DHT22;3178;48.730;8.990;2022-12-26T17:57:46;8.90;99.90
6291;DHT22;3178;48.730;8.990;2022-12-26T18:00:29;8.80;99.90
6291;DHT22;3178;48.730;8.990;2022-12-26T18:02:55;8.80;99.90
6291;DHT22;3178;48.730;8.990;2022-12-26T18:05:21;8.70;99.90
6291;DHT22;3178;48.730;8.990;2022-12-26T18:07:49;8.70;99.90
6291;DHT22;3178;48.730;8.990;2022-12-26T18:10:20;8.60;99.90
6291;DHT22;3178;48.730;8.990;2022-12-26T18:12:47;8.60;99.90
6291;DHT22;3178;48.730;8.990;2022-12-26T18:15:13;8.50;99.90
6291;DHT22;3178;48.730;8.990;2022-12-26T18:17:39;8.60;99.90
6291;DHT22;3178;48.730;8.990;2022-12-26T18:20:05;8.50;99.90
6291;DHT22;3178;48.730;8.990;2022-12-26T18:22:30;8.40;99.90
6291;DHT22;3178;48.730;8.990;2022-12-26T18:24:56;8.40;99.90
6291;DHT22;3178;48.730;8.990;2022-12-26T18:27:26;8.30;99.90
6291;DHT22;3178;48.730;8.990;2022-12-26T18:29:52;8.30;99.90
6291;DHT22;3178;48.730;8.990;2022-12-26T18:32:26;8.20;99.90
6291;DHT22;3178;48.730;8.990;2022-12-26T18:34:52;8.20;99.90
6291;DHT22;3178;48.730;8.990;2022-12-26T18:37:19;8.10;99.90
6291;DHT22;3178;48.730;8.990;2022-12-26T18:39:45;8.10;99.90
6291;DHT22;3178;48.730;8.990;2022-12-26T18:42:12;8.00;99.90
6291;DHT22;3178;48.730;8.990;2022-12-26T18:44:38;7.90;99.90
6291;DHT22;3178;48.730;8.990;2022-12-26T18:47:04;7.80;99.90
6291;DHT22;3178;48.730;8.990;2022-12-26T18:49:30;7.70;99.90
6291;DHT22;3178;48.730;8.990;2022-12-26T18:51:55;7.70;99.90
6291;DHT22;3178;48.730;8.990;2022-12-26T18:54:21;7.70;99.90
6291;DHT22;3178;48.730;8.990;2022-12-26T18:56:46;7.70;99.90
6291;DHT22;3178;48.730;8.990;2022-12-26T18:59:12;7.70;99.90
6291;DHT22;3178;48.730;8.990;2022-12-26T19:01:37;7.70;99.90
6291;DHT22;3178;48.730;8.990;2022-12-26T19:04:03;7.70;99.90
6291;DHT22;3178;48.730;8.990;2022-12-26T19:06:29;7.70;99.90
6291;DHT22;3178;48.730;8.990;2022-12-26T19:08:59;7.70;99.90
6291;DHT22;3178;48.730;8.990;2022-12-26T19:11:25;7.70;99.90
6291;DHT22;3178;48.730;8.990;2022-12-26T19:13:51;7.70;99.90
6291;DHT22;3178;48.730;8.990;2022-12-26T19:16:17;7.60;99.90
6291;DHT22;3178;48.730;8.990;2022-12-26T19:18:43;7.60;99.90
6291;DHT22;3178;48.730;8.990;2022-12-26T19:21:13;7.60;99.90
6291;DHT22;3178;48.730;8.990;2022-12-26T19:23:39;7.60;99.90
6291;DHT22;3178;48.730;8.990;2022-12-26T19:26:14;7.60;99.90
6291;DHT22;3178;48.730;8.990;2022-12-26T19:28:40;7.60;99.90
6291;DHT22;3178;48.730;8.990;2022-12-26T19:31:07;7.60;99.90
6291;DHT22;3178;48.730;8.990;2022-12-26T19:33:34;7.60;99.90
6291;DHT22;3178;48.730;8.990;2022-12-26T19:35:59;7.60;99.90
6291;DHT22;3178;48.730;8.990;2022-12-26T19:38:25;7.60;99.90
6291;DHT22;3178;48.730;8.990;2022-12-26T19:40:50;7.70;99.90
6291;DHT22;3178;48.730;8.990;2022-12-26T19:43:16;7.70;99.90
6291;DHT22;3178;48.730;8.990;2022-12-26T19:45:41;7.80;99.90
6291;DHT22;3178;48.730;8.990;2022-12-26T19:48:07;7.80;99.90
6291;DHT22;3178;48.730;8.990;2022-12-26T19:50:32;7.80;99.90
6291;DHT22;3178;48.730;8.990;2022-12-26T19:52:59;7.80;99.90
6291;DHT22;3178;48.730;8.990;2022-12-26T19:55:25;7.80;99.90
6291;DHT22;3178;48.730;8.990;2022-12-26T19:57:50;7.70;99.90
6291;DHT22;3178;48.730;8.990;2022-12-26T20:00:16;7.70;99.90
6291;DHT22;3178;48.730;8.990;2022-12-26T20:02:42;7.70;99.90
6291;DHT22;3178;48.730;8.990;2022-12-26T20:05:07;7.70;99.90
6291;DHT22;3178;48.730;8.990;2022-12-26T20:07:33;7.70;99.90